createdAt,value
2019-03-20T00:00:10.036Z,4.20
2019-03-20T00:02:38.796Z,4.20
2019-03-20T00:05:07.751Z,4.10
2019-03-20T00:07:36.462Z,4.10
2019-03-20T00:10:07.038Z,4.10
2019-03-20T00:12:35.828Z,4.00
2019-03-20T00:15:07.653Z,4.00
2019-03-20T00:17:36.517Z,4.00
2019-03-20T00:20:10.003Z,4.00
2019-03-20T00:22:38.900Z,3.90
2019-03-20T00:25:08.970Z,3.90
2019-03-20T00:27:37.836Z,3.90
2019-03-20T00:30:09.659Z,3.90
2019-03-20T00:32:38.522Z,3.90
2019-03-20T00:35:07.523Z,3.80
2019-03-20T00:37:36.303Z,3.80
2019-03-20T00:40:08.214Z,3.80
2019-03-20T00:42:36.930Z,3.80
2019-03-20T00:45:08.817Z,3.70
2019-03-20T00:47:37.528Z,3.70
2019-03-20T00:50:09.348Z,3.70
2019-03-20T00:52:38.157Z,3.60
2019-03-20T00:55:08.339Z,3.60
2019-03-20T00:57:37.295Z,3.60
2019-03-20T01:00:17.663Z,3.60
2019-03-20T01:02:46.437Z,3.60
2019-03-20T01:05:15.417Z,3.60
2019-03-20T01:07:44.465Z,3.60
2019-03-20T01:10:20.996Z,3.50
2019-03-20T01:12:49.870Z,3.50
2019-03-20T01:15:18.837Z,3.50
2019-03-20T01:17:47.542Z,3.50
2019-03-20T01:20:20.982Z,3.50
2019-03-20T01:22:49.774Z,3.40
2019-03-20T01:25:19.049Z,3.40
2019-03-20T01:27:47.902Z,3.40
2019-03-20T01:30:17.672Z,3.40
2019-03-20T01:32:46.477Z,3.40
2019-03-20T01:35:23.486Z,3.40
2019-03-20T01:37:45.650Z,3.40
2019-03-20T01:40:14.373Z,3.40
2019-03-20T01:42:43.099Z,3.30
2019-03-20T01:45:11.931Z,3.30
2019-03-20T01:47:40.923Z,3.30
2019-03-20T01:50:09.821Z,3.20
2019-03-20T01:52:38.558Z,3.20
2019-03-20T01:55:07.427Z,3.20
2019-03-20T01:57:36.231Z,3.20
2019-03-20T02:00:07.374Z,3.10
2019-03-20T02:02:36.116Z,3.10
2019-03-20T02:05:05.872Z,3.10
2019-03-20T02:07:34.611Z,3.00
2019-03-20T02:10:05.037Z,3.00
2019-03-20T02:12:33.853Z,3.00
2019-03-20T02:15:04.199Z,2.90
2019-03-20T02:17:32.938Z,2.90
2019-03-20T02:20:01.726Z,2.90
2019-03-20T02:22:30.535Z,2.90
2019-03-20T02:24:59.256Z,2.80
2019-03-20T02:27:27.984Z,2.80
2019-03-20T02:29:56.809Z,2.80
2019-03-20T02:32:25.518Z,2.80
2019-03-20T02:34:54.253Z,2.80
2019-03-20T02:37:22.992Z,2.80
2019-03-20T02:39:51.770Z,2.80
2019-03-20T02:42:20.547Z,2.70
2019-03-20T02:44:49.381Z,2.70
2019-03-20T02:47:18.180Z,2.70
2019-03-20T02:49:46.975Z,2.70
2019-03-20T02:52:15.713Z,2.70
2019-03-20T02:54:44.544Z,2.70
2019-03-20T02:57:13.273Z,2.60
2019-03-20T02:59:42.093Z,2.60
2019-03-20T03:02:10.809Z,2.60
2019-03-20T03:04:39.584Z,2.60
2019-03-20T03:07:08.407Z,2.60
2019-03-20T03:09:37.161Z,2.60
2019-03-20T03:12:05.976Z,2.60
2019-03-20T03:14:34.785Z,2.60
2019-03-20T03:17:03.641Z,2.60
2019-03-20T03:19:32.454Z,2.50
2019-03-20T03:22:01.172Z,2.50
2019-03-20T03:24:30.537Z,2.50
2019-03-20T03:26:59.318Z,2.50
2019-03-20T03:29:28.105Z,2.50
2019-03-20T03:31:56.951Z,2.50
2019-03-20T03:34:25.830Z,2.40
2019-03-20T03:36:54.703Z,2.40
2019-03-20T03:39:23.509Z,2.40
2019-03-20T03:41:52.275Z,2.40
2019-03-20T03:44:21.094Z,2.40
2019-03-20T03:46:49.937Z,2.40
2019-03-20T03:49:18.915Z,2.40
2019-03-20T03:51:47.803Z,2.30
2019-03-20T03:54:16.758Z,2.40
2019-03-20T03:56:45.653Z,2.30
2019-03-20T03:59:14.483Z,2.30
2019-03-20T04:01:43.281Z,2.30
2019-03-20T04:04:12.055Z,2.30
2019-03-20T04:06:40.979Z,2.30
2019-03-20T04:09:09.856Z,2.30
2019-03-20T04:11:38.659Z,2.30
2019-03-20T04:14:07.570Z,2.30
2019-03-20T04:16:36.375Z,2.30
2019-03-20T04:19:05.277Z,2.30
2019-03-20T04:21:34.166Z,2.30
2019-03-20T04:24:03.072Z,2.30
2019-03-20T04:26:31.945Z,2.20
2019-03-20T04:29:00.796Z,2.20
2019-03-20T04:31:29.687Z,2.30
2019-03-20T04:33:58.502Z,2.40
2019-03-20T04:36:27.401Z,2.40
2019-03-20T04:38:56.300Z,2.50
2019-03-20T04:41:25.034Z,2.60
2019-03-20T04:43:53.791Z,2.60
2019-03-20T04:46:22.578Z,2.70
2019-03-20T04:48:51.407Z,2.80
2019-03-20T04:51:20.129Z,2.90
2019-03-20T04:53:48.875Z,2.90
2019-03-20T04:56:17.675Z,2.90
2019-03-20T04:58:48.517Z,3.10
2019-03-20T05:01:17.369Z,3.10
2019-03-20T05:03:46.187Z,3.20
2019-03-20T05:06:15.003Z,3.30
2019-03-20T05:08:43.790Z,3.30
2019-03-20T05:11:12.597Z,3.40
2019-03-20T05:13:41.317Z,3.50
2019-03-20T05:16:10.075Z,3.50
2019-03-20T05:18:38.810Z,3.60
2019-03-20T05:21:07.549Z,3.60
2019-03-20T05:23:36.352Z,3.70
2019-03-20T05:26:05.193Z,3.70
2019-03-20T05:28:33.936Z,3.80
2019-03-20T05:31:02.804Z,3.80
2019-03-20T05:33:31.524Z,3.80
2019-03-20T05:36:00.285Z,3.90
2019-03-20T05:38:29.079Z,3.90
2019-03-20T05:40:57.879Z,4.00
2019-03-20T05:43:26.690Z,4.00
2019-03-20T05:45:55.498Z,4.10
2019-03-20T05:48:24.272Z,4.10
2019-03-20T05:50:53.037Z,4.20
2019-03-20T05:53:21.821Z,4.30
2019-03-20T05:55:50.657Z,4.30
2019-03-20T05:58:19.539Z,4.30
2019-03-20T06:00:48.339Z,4.40
2019-03-20T06:03:17.204Z,4.40
2019-03-20T06:05:46.059Z,4.40
2019-03-20T06:08:14.956Z,4.50
2019-03-20T06:10:43.682Z,4.50
2019-03-20T06:13:12.469Z,4.60
2019-03-20T06:15:41.234Z,4.60
2019-03-20T06:18:09.936Z,4.70
2019-03-20T06:20:38.765Z,4.70
2019-03-20T06:23:07.628Z,4.70
2019-03-20T06:25:36.337Z,4.80
2019-03-20T06:28:05.234Z,4.80
2019-03-20T06:30:33.946Z,4.80
2019-03-20T06:33:02.786Z,4.80
2019-03-20T06:35:31.660Z,4.90
2019-03-20T06:38:00.476Z,4.90
2019-03-20T06:40:29.213Z,5.00
2019-03-20T06:42:58.056Z,5.00
2019-03-20T06:45:27.011Z,5.00
2019-03-20T06:47:55.874Z,5.10
2019-03-20T06:50:24.706Z,5.10
2019-03-20T06:52:53.594Z,5.10
2019-03-20T06:55:22.318Z,5.20
2019-03-20T06:57:51.142Z,5.20
2019-03-20T07:00:22.966Z,5.30
2019-03-20T07:02:51.897Z,5.30
2019-03-20T07:05:55.295Z,5.40
2019-03-20T07:08:32.788Z,5.40
2019-03-20T07:11:05.166Z,5.50
2019-03-20T07:13:33.998Z,5.60
2019-03-20T07:16:03.386Z,5.60
2019-03-20T07:18:32.261Z,5.70
2019-03-20T07:21:01.149Z,5.80
2019-03-20T07:23:29.911Z,5.90
2019-03-20T07:25:58.856Z,6.10
2019-03-20T07:28:27.582Z,6.20
2019-03-20T07:30:56.404Z,6.40
2019-03-20T07:33:25.146Z,6.60
2019-03-20T07:35:53.963Z,6.70
2019-03-20T07:38:22.751Z,6.90
2019-03-20T07:40:51.511Z,7.10
2019-03-20T07:43:20.428Z,7.30
2019-03-20T07:45:49.378Z,7.30
2019-03-20T07:48:22.488Z,7.50
2019-03-20T07:50:48.739Z,7.60
2019-03-20T07:53:17.633Z,7.70
2019-03-20T07:55:46.449Z,7.80
2019-03-20T07:58:15.325Z,7.90
2019-03-20T08:00:44.198Z,8.00
2019-03-20T08:03:12.913Z,8.10
2019-03-20T08:05:41.732Z,8.20
2019-03-20T08:08:10.602Z,8.40
2019-03-20T08:10:39.351Z,8.60
2019-03-20T08:13:08.061Z,8.70
2019-03-20T08:15:36.887Z,8.80
2019-03-20T08:18:05.603Z,9.00
2019-03-20T08:20:34.471Z,9.20
2019-03-20T08:23:03.250Z,9.30
2019-03-20T08:25:32.006Z,9.40
2019-03-20T08:28:00.830Z,9.60
2019-03-20T08:30:29.610Z,9.70
2019-03-20T08:32:59.559Z,9.90
2019-03-20T08:35:29.516Z,9.80
2019-03-20T08:37:58.425Z,10.00
2019-03-20T08:40:27.405Z,10.30
2019-03-20T08:42:56.473Z,10.50
2019-03-20T08:45:26.835Z,10.70
2019-03-20T08:48:02.468Z,10.80
2019-03-20T08:50:50.223Z,10.80
2019-03-20T08:53:23.870Z,10.90
2019-03-20T08:55:52.896Z,10.90
2019-03-20T08:58:21.738Z,11.00
2019-03-20T09:00:50.609Z,11.00
2019-03-20T09:03:19.493Z,11.20
2019-03-20T09:05:48.296Z,11.30
2019-03-20T09:08:17.157Z,11.40
2019-03-20T09:10:46.046Z,11.50
2019-03-20T09:13:14.942Z,11.50
2019-03-20T09:15:43.844Z,11.50
2019-03-20T09:18:12.775Z,11.40
2019-03-20T09:20:41.763Z,11.40
2019-03-20T09:23:10.640Z,11.40
2019-03-20T09:25:39.377Z,11.50
2019-03-20T09:28:08.171Z,11.60
2019-03-20T09:30:37.084Z,11.80
2019-03-20T09:33:05.834Z,11.90
2019-03-20T09:35:34.758Z,12.10
2019-03-20T09:38:03.651Z,12.10
2019-03-20T09:40:32.458Z,11.90
2019-03-20T09:43:01.256Z,12.10
2019-03-20T09:45:30.138Z,12.00
2019-03-20T09:47:58.845Z,12.10
2019-03-20T09:50:28.329Z,12.20
2019-03-20T09:52:57.115Z,12.40
2019-03-20T09:55:25.849Z,12.70
2019-03-20T09:57:54.557Z,13.00
2019-03-20T10:00:25.408Z,13.30
2019-03-20T10:02:54.277Z,13.50
2019-03-20T10:05:23.177Z,13.60
2019-03-20T10:07:52.048Z,13.60
2019-03-20T10:10:25.648Z,13.70
2019-03-20T10:12:54.432Z,13.70
2019-03-20T10:15:28.071Z,13.80
2019-03-20T10:17:56.825Z,13.80
2019-03-20T10:20:25.880Z,13.80
2019-03-20T10:22:56.159Z,13.90
2019-03-20T10:25:25.030Z,13.90
2019-03-20T10:27:53.755Z,13.90
2019-03-20T10:30:23.269Z,14.00
2019-03-20T10:32:52.083Z,14.00
2019-03-20T10:35:21.122Z,14.00
2019-03-20T10:37:49.961Z,14.10
2019-03-20T10:40:25.175Z,14.30
2019-03-20T10:42:54.030Z,14.50
2019-03-20T10:45:23.151Z,14.70
2019-03-20T10:47:53.243Z,14.80
2019-03-20T10:50:23.180Z,14.80
2019-03-20T10:52:52.152Z,14.80
2019-03-20T10:55:21.117Z,14.90
2019-03-20T10:57:50.085Z,15.00
2019-03-20T11:00:31.267Z,15.00
2019-03-20T11:03:00.132Z,15.10
2019-03-20T11:05:29.099Z,15.10
2019-03-20T11:07:58.083Z,15.10
2019-03-20T11:10:27.592Z,15.10
2019-03-20T11:12:56.658Z,15.20
2019-03-20T11:15:25.815Z,15.30
2019-03-20T11:17:54.723Z,15.40
2019-03-20T11:20:24.741Z,15.40
2019-03-20T11:22:53.619Z,15.40
2019-03-20T11:25:24.447Z,15.50
2019-03-20T11:27:53.407Z,15.60
2019-03-20T11:30:25.777Z,15.70
2019-03-20T11:32:54.918Z,15.80
2019-03-20T11:35:23.770Z,15.80
2019-03-20T11:37:52.714Z,15.90
2019-03-20T11:40:29.366Z,15.90
2019-03-20T11:42:58.256Z,15.90
2019-03-20T11:45:27.286Z,16.00
2019-03-20T11:47:56.166Z,15.90
2019-03-20T11:50:42.375Z,15.90
2019-03-20T11:53:11.262Z,16.00
2019-03-20T11:55:40.220Z,16.10
2019-03-20T11:58:09.029Z,16.30
2019-03-20T12:00:37.989Z,16.40
2019-03-20T20:44:56.929Z,9.00
2019-03-20T20:47:25.748Z,8.90
2019-03-20T20:49:54.500Z,8.90
2019-03-20T20:52:23.275Z,8.80
2019-03-20T20:54:52.206Z,8.80
2019-03-20T20:57:21.168Z,8.70
2019-03-20T20:59:49.971Z,8.70
2019-03-20T21:02:18.931Z,8.70
2019-03-20T21:04:47.737Z,8.60
2019-03-20T21:07:16.527Z,8.60
2019-03-20T21:09:45.257Z,8.50
2019-03-20T21:12:14.017Z,8.50
2019-03-20T21:14:42.831Z,8.40
2019-03-20T21:17:14.633Z,8.40
2019-03-20T21:19:44.630Z,8.40
2019-03-20T21:22:31.444Z,8.30
2019-03-20T21:25:00.437Z,8.30
2019-03-20T21:28:03.930Z,8.30
2019-03-20T21:30:38.598Z,8.20
2019-03-20T21:33:16.404Z,8.20
2019-03-20T21:36:07.445Z,8.20
2019-03-20T21:38:36.265Z,8.20
2019-03-20T21:41:19.879Z,8.10
2019-03-20T21:44:10.860Z,8.10
2019-03-20T21:46:48.547Z,8.10
2019-03-20T21:49:17.424Z,8.00
2019-03-20T21:51:46.201Z,8.00
2019-03-20T21:54:34.567Z,8.00
2019-03-20T21:57:18.176Z,8.00
2019-03-20T22:00:09.359Z,7.90
2019-03-20T22:02:42.431Z,7.90
2019-03-20T22:05:34.915Z,7.80
2019-03-20T22:08:03.724Z,7.90
2019-03-20T22:11:02.587Z,7.80
2019-03-20T22:13:39.822Z,7.80
2019-03-20T22:16:35.034Z,7.80
2019-03-20T22:19:30.727Z,7.80
2019-03-20T22:22:02.541Z,7.70
2019-03-20T22:24:53.539Z,7.70
2019-03-20T22:27:41.518Z,7.60
2019-03-20T22:30:10.253Z,7.60
2019-03-20T22:32:57.018Z,7.50
2019-03-20T22:35:31.764Z,7.50
2019-03-20T22:38:02.021Z,7.50
2019-03-20T22:41:05.520Z,7.50
2019-03-20T22:43:40.000Z,7.50
2019-03-20T22:46:31.244Z,7.40
2019-03-20T22:49:14.725Z,7.40
2019-03-20T22:51:46.609Z,7.40
2019-03-20T22:54:33.300Z,7.40
2019-03-20T22:57:13.782Z,7.30
2019-03-20T22:59:42.505Z,7.30
2019-03-20T23:02:23.325Z,7.30
2019-03-20T23:04:55.294Z,7.30
2019-03-20T23:07:24.968Z,7.20
2019-03-20T23:09:53.767Z,7.20
2019-03-20T23:12:22.664Z,7.20
2019-03-20T23:14:51.387Z,7.20
2019-03-20T23:17:20.254Z,7.10
2019-03-20T23:19:49.401Z,7.10
2019-03-20T23:22:21.124Z,7.10
2019-03-20T23:24:49.973Z,7.10
2019-03-20T23:27:22.327Z,7.10
2019-03-20T23:29:51.047Z,7.10
2019-03-20T23:32:19.975Z,7.00
2019-03-20T23:34:48.820Z,7.00
2019-03-20T23:37:17.555Z,7.00
2019-03-20T23:39:46.442Z,7.00
2019-03-20T23:42:15.147Z,7.00
2019-03-20T23:44:43.877Z,7.00
2019-03-20T23:47:12.657Z,6.90
2019-03-20T23:49:41.423Z,6.90
2019-03-20T23:52:10.135Z,6.90
2019-03-20T23:54:43.437Z,6.90
2019-03-20T23:57:12.146Z,6.90
2019-03-20T23:59:40.893Z,6.80
